Time;durP1;ratioP1;P1;durP2;ratioP2;P2;SDS_P1;SDS_P2;PMS_P1;PMS_P2;Temp;Humidity;BMP_temperature;BMP_pressure;BME280_temperature;BME280_humidity;BME280_pressure;Samples;Min_cycle;Max_cycle;Signal;HPM_P1;HPM_P2
2022/08/10 04:34:59;;;;;;;8.75;4.45;;;17.60;99.90;;;16.05;100.00;101512.63;5145984;27;20401;-86
2022/08/10 04:37:27;;;;;;;6.10;4.07;;;18.10;99.90;;;16.12;100.00;101511.66;5140683;27;20055;-88
2022/08/10 04:39:56;;;;;;;7.28;3.88;;;18.20;99.90;;;16.16;100.00;101512.09;5138414;27;20035;-88
2022/08/10 04:42:24;;;;;;;9.10;4.00;;;18.40;99.90;;;16.17;100.00;101508.31;5137099;27;20046;-87
2022/08/10 04:44:51;;;;;;;9.32;4.65;;;18.50;99.90;;;16.20;100.00;101511.53;5142078;27;20114;-88
2022/08/10 04:47:18;;;;;;;6.68;3.97;;;18.60;99.90;;;16.20;100.00;101516.16;5132364;27;20039;-91
2022/08/10 04:49:46;;;;;;;6.38;3.65;;;18.60;99.90;;;16.19;100.00;101514.47;5141633;27;20037;-89
2022/08/10 04:52:14;;;;;;;7.90;4.10;;;18.70;99.90;;;16.32;100.00;101517.34;5138845;27;20066;-88
2022/08/10 04:54:41;;;;;;;10.05;4.78;;;18.80;99.90;;;16.36;100.00;101515.03;5122546;27;20127;-89
2022/08/10 04:57:09;;;;;;;7.85;4.13;;;18.90;99.90;;;16.40;100.00;101519.94;5118960;27;20051;-90
2022/08/10 04:59:36;;;;;;;10.43;4.97;;;18.90;99.90;;;16.53;100.00;101507.38;5120912;27;20043;-90
2022/08/10 05:02:03;;;;;;;10.80;4.78;;;18.90;99.90;;;16.68;100.00;101521.84;5114271;27;20043;-89
2022/08/10 05:04:31;;;;;;;8.43;4.55;;;19.00;99.90;;;16.81;100.00;101515.56;5135220;27;20039;-88
2022/08/10 05:06:58;;;;;;;8.73;4.47;;;19.00;99.90;;;16.91;100.00;101520.78;5141068;27;20084;-88
2022/08/10 05:09:26;;;;;;;9.43;5.20;;;19.10;99.90;;;16.98;100.00;101527.13;5134862;27;20036;-88
2022/08/10 05:11:54;;;;;;;7.93;4.57;;;19.20;99.90;;;16.99;100.00;101523.34;5142287;27;20114;-88
2022/08/10 05:14:21;;;;;;;9.15;4.50;;;19.20;99.80;;;17.09;100.00;101518.31;5134582;27;20454;-90
2022/08/10 05:16:51;;;;;;;9.40;5.10;;;19.20;99.90;;;17.18;100.00;101514.34;5135005;27;20046;-87
2022/08/10 05:19:18;;;;;;;8.57;4.85;;;19.30;99.80;;;17.34;100.00;101513.19;5134873;27;20560;-86
2022/08/10 05:21:45;;;;;;;10.57;5.40;;;19.30;99.50;;;17.46;98.67;101512.56;5136050;27;20496;-85
2022/08/10 05:24:12;;;;;;;11.20;5.47;;;19.40;98.90;;;17.61;97.32;101515.16;5134593;27;20500;-85
2022/08/10 05:26:41;;;;;;;10.40;5.60;;;19.40;98.30;;;17.64;97.42;101518.34;5161036;22;20035;-83
2022/08/10 05:29:08;;;;;;;9.23;5.20;;;19.50;98.20;;;17.74;96.39;101512.44;5063202;28;20037;-78
2022/08/10 05:31:35;;;;;;;14.13;5.80;;;19.50;97.90;;;17.88;95.35;101522.47;5062343;28;20068;-78
2022/08/10 05:34:03;;;;;;;10.93;5.38;;;19.60;97.60;;;17.92;95.64;101520.16;5063784;28;20032;-78
2022/08/10 05:36:30;;;;;;;15.00;5.35;;;19.60;97.90;;;17.96;96.09;101519.53;5049653;28;20043;-78
2022/08/10 05:38:58;;;;;;;7.70;4.95;;;19.70;98.10;;;18.05;95.20;101527.56;5051829;28;20151;-78
2022/08/10 05:41:33;;;;;;;11.48;5.05;;;19.70;97.80;;;18.14;94.33;101520.81;5051007;28;20047;-78
2022/08/10 05:44:03;;;;;;;11.30;5.32;;;19.80;97.50;;;18.24;93.00;101523.16;5046526;28;20041;-78
2022/08/10 05:46:30;;;;;;;10.18;4.93;;;19.80;96.90;;;18.29;93.46;101517.88;5050089;28;20445;-78
2022/08/10 05:48:57;;;;;;;12.82;5.15;;;19.90;96.90;;;18.47;91.96;101522.75;5049531;28;20045;-79
2022/08/10 05:51:25;;;;;;;11.15;5.00;;;20.00;96.50;;;18.60;92.68;101525.50;5038981;28;20053;-79
2022/08/10 05:53:53;;;;;;;11.35;5.90;;;20.00;96.70;;;18.62;91.09;101520.63;5046274;28;20049;-79
2022/08/10 05:56:23;;;;;;;14.00;5.60;;;20.10;96.30;;;18.72;90.94;101523.78;5050604;28;20049;-80
2022/08/10 05:58:51;;;;;;;9.70;5.10;;;20.10;96.30;;;18.80;91.57;101524.63;5049437;28;20123;-80
2022/08/10 06:01:23;;;;;;;9.38;5.38;;;20.20;96.30;;;18.87;89.88;101531.88;5047793;28;20056;-80
2022/08/10 06:03:57;;;;;;;11.02;5.57;;;20.20;95.90;;;18.95;88.93;101522.50;5050866;28;20052;-80
2022/08/10 06:06:30;;;;;;;12.57;5.22;;;20.30;95.60;;;19.03;88.25;101527.78;5045739;28;20048;-80
2022/08/10 06:08:59;;;;;;;8.85;5.13;;;20.30;94.90;;;19.09;86.82;101529.69;5048910;28;20080;-80
2022/08/10 06:11:29;;;;;;;12.98;6.00;;;20.40;94.50;;;19.20;86.80;101530.09;5050388;28;20037;-80
2022/08/10 06:16:45;;;;;;;19.27;5.50;;;20.50;94.50;;;19.52;87.67;101529.09;5047224;28;20044;-80
2022/08/10 06:19:13;;;;;;;8.18;4.93;;;20.60;95.00;;;19.60;84.86;101524.41;5047026;28;20087;-79
2022/08/10 06:21:43;;;;;;;17.27;5.68;;;20.70;94.30;;;19.77;82.79;101533.06;5047478;28;20545;-80
2022/08/10 06:24:12;;;;;;;12.07;5.43;;;20.80;93.30;;;19.92;83.21;101528.94;5050191;28;20086;-79
2022/08/10 06:26:40;;;;;;;11.70;5.25;;;20.80;93.00;;;20.15;81.29;101527.50;5046425;28;20068;-81
2022/08/10 06:29:10;;;;;;;11.23;4.88;;;20.90;92.80;;;20.37;81.58;101521.59;5048122;28;20076;-80
2022/08/10 06:31:42;;;;;;;10.70;5.47;;;21.00;92.90;;;20.57;80.06;101524.19;5048324;28;20067;-80
2022/08/10 06:34:12;;;;;;;10.27;4.88;;;21.10;92.70;;;20.72;78.49;101530.25;5048895;28;20458;-81
2022/08/10 06:36:43;;;;;;;12.68;5.10;;;21.10;91.90;;;20.84;77.40;101533.13;5048429;28;20033;-80
2022/08/10 06:39:11;;;;;;;13.00;4.70;;;21.20;91.40;;;21.03;76.81;101529.28;5045817;28;20065;-81
2022/08/10 06:41:46;;;;;;;10.75;5.30;;;21.30;91.60;;;21.11;75.70;101535.59;5042239;28;20064;-81
2022/08/10 06:44:29;;;;;;;11.55;4.72;;;21.30;91.00;;;21.08;75.47;101536.94;5048525;28;20103;-81
2022/08/10 06:46:59;;;;;;;11.00;4.82;;;21.40;90.80;;;21.16;74.46;101528.31;5049213;28;20045;-81
2022/08/10 06:49:28;;;;;;;9.95;4.45;;;21.40;89.90;;;21.25;74.96;101526.09;5039918;28;20041;-81
2022/08/10 06:51:56;;;;;;;19.70;4.90;;;21.50;90.40;;;21.41;75.17;101533.75;5050520;28;20127;-80
2022/08/10 06:54:28;;;;;;;12.25;4.35;;;21.60;90.20;;;21.57;74.17;101534.22;5042472;28;20071;-80
2022/08/10 06:56:57;;;;;;;10.68;4.43;;;21.60;90.10;;;21.78;74.17;101528.22;5050430;28;20518;-80
2022/08/10 06:59:32;;;;;;;15.25;5.18;;;21.70;90.50;;;21.78;70.89;101533.75;5050202;28;20406;-81
2022/08/10 07:02:07;;;;;;;8.55;4.60;;;21.80;89.70;;;21.73;70.18;101527.22;5049969;28;20045;-81
2022/08/10 07:04:42;;;;;;;7.47;3.63;;;21.80;87.70;;;21.65;70.21;101525.63;5044880;28;20069;-82
2022/08/10 07:07:14;;;;;;;10.35;4.10;;;21.90;87.60;;;21.55;69.81;101528.94;5049761;28;20033;-81
2022/08/10 07:09:43;;;;;;;8.50;3.97;;;21.90;86.90;;;21.66;70.60;101533.66;5050688;28;20098;-81
2022/08/10 07:12:14;;;;;;;13.35;4.35;;;21.90;87.20;;;21.75;70.50;101531.44;5048827;28;20457;-81
2022/08/10 07:14:44;;;;;;;11.67;4.10;;;22.00;87.30;;;21.72;69.25;101531.88;5046512;28;20045;-82
2022/08/10 07:17:13;;;;;;;11.70;4.00;;;22.00;86.50;;;21.77;68.15;101529.28;5030090;28;20346;-81
2022/08/10 07:19:43;;;;;;;11.38;4.40;;;22.00;86.00;;;21.67;68.54;101534.53;5049406;28;20120;-80
2022/08/10 07:22:10;;;;;;;8.18;3.70;;;22.00;85.40;;;21.87;69.07;101523.16;5047393;28;20486;-81
2022/08/10 07:24:41;;;;;;;9.77;3.40;;;22.10;86.10;;;21.97;67.87;101529.00;5049473;28;20064;-81
2022/08/10 07:27:10;;;;;;;13.02;4.38;;;22.10;85.40;;;22.02;66.90;101525.50;5050742;28;20079;-81
2022/08/10 07:29:40;;;;;;;9.57;3.63;;;22.20;85.00;;;22.08;68.59;101523.72;5050232;28;20068;-80
2022/08/10 07:32:08;;;;;;;10.60;3.60;;;22.20;86.20;;;22.19;66.63;101532.06;5048269;28;20120;-79
2022/08/10 07:34:38;;;;;;;9.35;3.85;;;22.20;85.10;;;22.28;66.80;101534.53;5048421;28;20124;-81
2022/08/10 07:37:11;;;;;;;9.57;3.72;;;22.30;84.90;;;22.35;65.56;101535.25;5043944;28;20077;-81
2022/08/10 07:39:45;;;;;;;9.63;3.85;;;22.30;84.40;;;22.40;65.43;101540.94;5034509;28;20384;-81
2022/08/10 07:42:15;;;;;;;8.70;3.35;;;22.40;84.00;;;22.50;67.43;101543.97;5048883;28;20552;-80
2022/08/10 07:44:45;;;;;;;10.15;3.60;;;22.50;85.50;;;22.56;65.18;101531.94;5046045;28;20041;-80
2022/08/10 07:47:18;;;;;;;10.90;3.80;;;22.50;84.50;;;22.72;66.08;101546.19;5048165;28;20048;-81
2022/08/10 07:49:47;;;;;;;13.88;4.30;;;22.60;85.30;;;22.71;63.83;101533.38;5053310;28;20055;-81
2022/08/10 07:52:16;;;;;;;13.38;4.05;;;22.60;83.30;;;22.79;64.18;101536.66;5050977;28;20498;-81
2022/08/10 07:54:49;;;;;;;9.60;3.78;;;22.70;83.90;;;22.91;64.40;101533.84;5048291;28;20037;-81
2022/08/10 07:57:22;;;;;;;8.85;3.50;;;22.70;83.90;;;22.91;64.40;101533.84;5048001;28;20087;-81
2022/08/10 07:59:59;;;;;;;6.97;3.42;;;22.70;83.00;;;23.05;62.78;101534.47;5047806;28;20044;-81
2022/08/10 08:02:31;;;;;;;9.65;3.72;;;22.80;82.70;;;23.05;62.78;101534.47;5042806;28;20099;-81
2022/08/10 08:05:05;;;;;;;7.90;3.60;;;22.90;81.50;;;23.03;61.43;101537.50;5028442;28;20376;-81
2022/08/10 08:07:36;;;;;;;10.18;3.88;;;22.90;81.40;;;23.10;62.28;101540.16;5050854;28;20552;-81
2022/08/10 08:10:06;;;;;;;7.15;3.67;;;22.90;81.70;;;23.10;60.73;101537.38;5046591;28;20120;-80
2022/08/10 08:12:34;;;;;;;7.35;3.40;;;23.00;80.40;;;23.10;60.73;101537.38;5045208;28;20077;-80
2022/08/10 08:15:03;;;;;;;11.40;3.88;;;23.00;79.80;;;23.10;60.73;101537.38;5051602;28;20037;-79
2022/08/10 08:17:32;;;;;;;8.82;3.28;;;23.00;79.70;;;23.10;60.73;101537.38;5043767;28;20103;-81
2022/08/10 08:20:01;;;;;;;10.23;3.72;;;23.10;79.90;;;23.10;60.73;101537.38;5043542;28;20059;-82
2022/08/10 08:22:29;;;;;;;11.93;3.63;;;23.10;80.10;;;23.10;60.73;101537.38;5044657;28;20072;-83
2022/08/10 08:24:58;;;;;;;11.07;4.20;;;23.20;79.60;;;23.10;60.73;101537.38;5048880;28;20047;-82
2022/08/10 08:27:28;;;;;;;9.77;3.67;;;23.20;79.70;;;23.10;60.73;101537.38;5031048;28;20117;-82
2022/08/10 08:29:56;;;;;;;6.82;3.33;;;23.30;79.60;;;23.10;60.73;101537.38;5041341;28;20048;-82
2022/08/10 08:32:26;;;;;;;11.07;3.53;;;23.30;78.20;;;23.10;60.73;101537.38;5046814;28;20127;-82
2022/08/10 08:34:57;;;;;;;9.80;3.70;;;23.40;78.40;;;23.10;60.73;101537.38;5059389;28;20040;-82
2022/08/10 08:37:29;;;;;;;7.45;3.30;;;23.40;77.80;;;23.10;60.73;101537.38;5050992;28;20494;-82
2022/08/10 08:39:57;;;;;;;9.50;3.10;;;23.40;78.20;;;23.10;60.73;101537.38;5049963;28;20041;-82
2022/08/10 08:42:47;;;;;;;11.00;3.60;;;23.50;81.30;;;23.10;60.73;101537.38;5043702;28;20123;-82
2022/08/10 08:45:27;;;;;;;12.48;3.10;;;23.60;78.90;;;23.10;60.73;101537.38;5049228;28;20052;-82
2022/08/10 08:48:35;;;;;;;8.63;3.67;;;23.60;77.50;;;23.10;60.73;101537.38;5040154;28;20128;-82
2022/08/10 08:51:19;;;;;;;10.18;3.35;;;23.60;76.40;;;23.10;60.73;101537.38;5054209;28;20505;-81
2022/08/10 08:54:07;;;;;;;11.60;3.63;;;23.60;76.50;;;-147.18;100.00;67318.16;5048506;28;20041;-82
2022/08/10 08:56:46;;;;;;;5.63;2.92;;;23.60;76.70;;;23.10;60.73;101537.38;5048445;28;20048;-81
2022/08/10 08:59:31;;;;;;;7.13;3.40;;;23.70;75.40;;;23.10;60.73;101537.38;5050068;28;20216;-82
2022/08/10 09:02:18;;;;;;;8.27;3.28;;;23.80;75.60;;;23.10;60.73;101537.38;5029029;28;20037;-82
2022/08/10 09:05:06;;;;;;;6.80;3.20;;;23.90;77.30;;;23.10;60.73;101537.38;5056283;28;20124;-82
2022/08/10 09:08:30;;;;;;;11.13;3.88;;;23.90;74.00;;;23.10;60.73;101537.38;5052431;28;20064;-82
2022/08/10 09:11:06;;;;;;;8.57;3.10;;;23.90;73.90;;;24.25;52.11;101509.63;5029729;28;20053;-82
2022/08/10 09:13:41;;;;;;;14.05;3.50;;;23.90;72.70;;;24.33;54.18;101500.03;5052510;28;20041;-82
2022/08/10 09:16:29;;;;;;;11.38;3.20;;;24.00;75.20;;;24.33;54.18;101500.03;5051741;28;20041;-81
2022/08/10 09:19:10;;;;;;;8.90;3.58;;;24.00;75.80;;;24.33;54.18;101500.03;5053483;28;20123;-82
2022/08/10 09:21:46;;;;;;;11.40;4.13;;;24.10;72.90;;;24.33;54.18;101500.03;5039996;28;20056;-82
2022/08/10 09:24:21;;;;;;;8.32;3.28;;;24.10;72.80;;;-147.17;54.18;101500.03;5059457;28;20040;-81
2022/08/10 09:26:51;;;;;;;11.65;3.40;;;24.20;73.60;;;24.33;54.18;101500.03;5054845;28;20051;-82
2022/08/10 09:29:26;;;;;;;7.00;2.80;;;24.20;73.10;;;-147.18;42.87;67318.16;5053290;28;20072;-82
2022/08/10 09:32:07;;;;;;;9.63;3.83;;;24.30;73.10;;;24.33;54.18;101500.03;5049497;28;20065;-82
2022/08/10 09:34:50;;;;;;;9.05;3.15;;;24.20;72.40;;;-147.18;42.87;75859.31;5051962;28;20123;-82
2022/08/10 09:37:23;;;;;;;8.63;3.30;;;24.20;74.50;;;;;;5052402;28;20091;-82
2022/08/10 09:39:56;;;;;;;7.05;3.15;;;24.30;72.70;;;;;;5058992;28;20045;-82
2022/08/10 09:42:38;;;;;;;12.38;3.33;;;24.30;72.40;;;24.72;52.11;101481.47;5054327;28;20127;-82
2022/08/10 09:45:16;;;;;;;10.38;2.95;;;24.40;73.70;;;24.66;51.12;101478.91;5050639;28;20139;-81
2022/08/10 09:47:57;;;;;;;7.95;2.90;;;24.40;71.40;;;24.80;49.90;101477.41;5017998;28;20055;-82
2022/08/10 09:50:36;;;;;;;7.22;2.95;;;24.40;71.90;;;24.75;50.52;101480.13;5050040;28;20041;-82
2022/08/10 09:53:16;;;;;;;7.68;3.25;;;24.40;71.40;;;24.75;50.52;101480.13;5051562;28;20572;-81
2022/08/10 09:56:07;;;;;;;8.87;3.60;;;24.50;70.50;;;24.76;50.88;101470.69;5051607;28;20120;-81
2022/08/10 09:58:42;;;;;;;6.03;2.88;;;24.50;72.20;;;-147.17;50.88;75785.13;5050666;28;20135;-83
2022/08/10 10:01:23;;;;;;;8.00;3.28;;;24.50;70.40;;;24.76;50.88;101470.69;5057446;28;20144;-82
2022/08/10 10:04:03;;;;;;;7.75;3.00;;;24.50;69.20;;;24.80;46.73;101466.28;5050879;28;20048;-82
2022/08/10 10:06:40;;;;;;;7.18;3.47;;;24.50;67.70;;;24.80;46.73;101466.28;5051869;28;20179;-80
2022/08/10 10:09:15;;;;;;;9.35;3.28;;;24.50;68.70;;;24.80;46.73;101466.28;5049831;28;20068;-83
2022/08/10 10:11:57;;;;;;;7.10;2.95;;;24.60;69.20;;;24.93;46.32;101449.19;5044735;28;20083;-84
2022/08/10 10:15:18;;;;;;;8.13;3.63;;;24.60;67.10;;;24.90;45.86;101441.38;5050775;28;20044;-83
2022/08/10 10:17:40;;;;;;;8.32;2.83;;;24.60;66.70;;;24.90;45.86;101441.38;5051893;28;20525;-83
2022/08/10 10:20:15;;;;;;;9.70;3.15;;;24.60;66.00;;;24.94;44.16;101442.53;5057058;28;20048;-83
2022/08/10 10:22:58;;;;;;;7.60;3.30;;;24.70;65.00;;;24.96;44.69;101442.28;5049274;28;20124;-83
2022/08/10 10:25:33;;;;;;;8.13;3.28;;;24.60;64.90;;;24.98;45.38;101440.91;5052045;28;20075;-83
2022/08/10 10:28:18;;;;;;;8.43;2.70;;;24.70;66.40;;;25.10;45.33;101442.72;4995750;28;20076;-83
2022/08/10 10:31:04;;;;;;;7.78;2.80;;;24.70;66.90;;;25.10;45.37;101431.59;4969997;28;20067;-83
2022/08/10 10:33:48;;;;;;;8.10;3.25;;;24.80;66.10;;;25.17;44.47;101437.81;4963271;28;20046;-84
2022/08/10 10:36:18;;;;;;;6.93;3.05;;;24.80;65.70;;;25.18;45.44;101431.13;4965744;28;20237;-83
2022/08/10 10:38:47;;;;;;;6.10;3.33;;;24.80;66.50;;;25.23;44.87;101431.22;4932567;28;20054;-83
2022/08/10 10:41:32;;;;;;;7.32;3.10;;;24.90;65.50;;;25.22;44.51;101428.66;4985475;28;20046;-83
2022/08/10 10:44:19;;;;;;;6.30;3.03;;;24.90;65.30;;;25.24;44.40;101438.47;4956116;28;20121;-84
2022/08/10 10:47:03;;;;;;;5.40;3.10;;;24.90;65.50;;;25.19;44.04;101430.03;5020770;28;20572;-83
2022/08/10 10:49:49;;;;;;;5.78;2.92;;;24.90;64.40;;;25.25;44.90;101426.22;4997625;28;20470;-83
2022/08/10 10:52:38;;;;;;;6.38;3.38;;;25.00;65.10;;;25.28;44.56;101422.06;4947589;28;20041;-84
2022/08/10 10:55:16;;;;;;;14.48;3.55;;;25.00;65.20;;;25.24;43.61;101426.50;4969091;28;20050;-83
2022/08/10 10:57:58;;;;;;;5.65;3.00;;;25.00;64.00;;;25.21;44.47;101421.38;4969952;28;20049;-83
2022/08/10 11:00:34;;;;;;;7.07;3.08;;;25.00;65.00;;;25.22;45.09;101423.09;4964812;28;20518;-83
2022/08/10 11:03:26;;;;;;;7.93;3.13;;;25.00;66.10;;;25.35;43.91;101401.25;4963216;28;20118;-83
2022/08/10 11:06:09;;;;;;;5.72;3.08;;;25.00;65.60;;;25.29;44.35;101410.66;4995240;28;20129;-83
2022/08/10 11:08:42;;;;;;;8.98;2.90;;;25.00;64.80;;;25.34;44.33;101410.75;4931431;29;20117;-83
2022/08/10 11:11:16;;;;;;;7.60;3.30;;;25.00;65.30;;;25.27;44.70;101404.53;4930487;29;20040;-84
2022/08/10 11:13:57;;;;;;;7.25;3.50;;;25.00;64.70;;;25.31;44.39;101397.31;4931666;28;20052;-79
2022/08/10 11:16:35;;;;;;;5.32;3.05;;;25.00;64.60;;;25.37;46.15;101401.00;4930851;28;20394;-82
2022/08/10 11:19:15;;;;;;;6.95;3.25;;;25.10;66.60;;;25.38;44.64;101394.34;4942355;28;20126;-86
2022/08/10 11:22:07;;;;;;;7.63;3.55;;;25.10;65.70;;;25.43;45.08;101399.94;4938297;28;20048;-82
2022/08/10 11:24:46;;;;;;;10.45;3.50;;;25.10;65.10;;;25.52;43.56;101386.38;4956516;28;20093;-82
2022/08/10 11:27:25;;;;;;;9.50;3.30;;;25.20;63.50;;;25.40;44.20;101380.13;4953056;28;20443;-82
2022/08/10 11:30:00;;;;;;;7.32;3.33;;;25.20;64.00;;;25.44;43.26;101382.13;4963258;28;20249;-82
2022/08/10 11:32:41;;;;;;;6.90;2.85;;;25.10;63.20;;;25.36;44.05;101380.66;4983383;22;20133;-89
2022/08/10 11:35:22;;;;;;;10.38;3.53;;;25.20;63.70;;;25.33;44.01;101375.59;4967019;28;20452;-87
2022/08/10 11:38:03;;;;;;;10.60;2.97;;;25.20;63.50;;;25.31;43.96;101376.97;4959375;28;20043;-87
2022/08/10 11:40:39;;;;;;;7.68;3.42;;;25.10;63.20;;;25.41;43.76;101385.44;4968380;28;20039;-87
2022/08/10 11:43:14;;;;;;;7.15;3.00;;;25.20;64.00;;;25.32;43.38;101373.06;4986394;28;20057;-88
2022/08/10 11:45:45;;;;;;;4.75;2.80;;;25.20;62.40;;;25.25;43.89;101378.88;4980645;28;21087;-89
2022/08/10 11:48:21;;;;;;;6.80;3.17;;;25.20;63.20;;;25.27;42.94;101371.09;4980326;28;20118;-87
2022/08/10 11:50:57;;;;;;;8.35;3.17;;;25.20;62.50;;;25.32;42.90;101373.94;4982192;28;20052;-88
2022/08/10 11:53:36;;;;;;;4.32;2.67;;;25.20;63.10;;;25.33;42.68;101375.59;4978593;28;20046;-88
2022/08/10 11:56:05;;;;;;;5.85;2.90;;;25.20;62.40;;;25.39;41.63;101361.72;4988498;28;20057;-86
2022/08/10 12:01:30;;;;;;;5.72;2.60;;;25.30;62.10;;;25.34;42.95;101368.94;4984732;28;20046;-87
2022/08/10 12:03:58;;;;;;;5.57;2.60;;;25.30;61.70;;;25.40;41.27;101368.97;4986395;28;20522;-85
2022/08/10 12:06:28;;;;;;;5.13;2.25;;;25.30;61.10;;;25.51;40.79;101366.03;4987723;28;20046;-86
2022/08/10 12:08:58;;;;;;;5.10;2.60;;;25.30;60.20;;;25.50;40.55;101372.72;4982902;28;20125;-85
2022/08/10 12:11:29;;;;;;;6.15;2.67;;;25.30;59.00;;;25.51;39.71;101368.84;4982780;28;20077;-85
2022/08/10 12:14:04;;;;;;;5.05;2.47;;;25.30;57.60;;;25.51;40.13;101365.19;4989637;28;20062;-89
2022/08/10 12:16:37;;;;;;;5.03;2.30;;;25.30;59.20;;;25.46;39.84;101354.00;4984015;28;20047;-90
2022/08/10 12:19:20;;;;;;;8.35;3.03;;;25.30;58.60;;;25.45;39.42;101357.88;4980103;28;20127;-88
2022/08/10 12:21:56;;;;;;;6.13;2.47;;;25.30;57.90;;;25.58;38.62;101360.25;5051092;28;20047;-90
2022/08/10 12:24:41;;;;;;;5.22;2.42;;;25.40;57.00;;;25.56;39.96;101357.72;4984476;28;20084;-89
2022/08/10 12:27:13;;;;;;;7.82;2.50;;;25.40;58.50;;;25.53;40.38;101355.47;4982930;28;20474;-89
2022/08/10 12:29:46;;;;;;;6.35;2.65;;;25.40;59.00;;;25.48;39.32;101354.56;4986040;28;20456;-87
2022/08/10 12:32:24;;;;;;;9.10;2.30;;;25.40;58.20;;;25.59;41.13;101356.34;4985572;28;20038;-81
2022/08/10 12:35:00;;;;;;;5.53;2.45;;;25.40;59.50;;;25.49;41.96;101342.31;4995734;28;20075;-89
2022/08/10 12:37:35;;;;;;;5.13;2.35;;;25.40;58.50;;;25.46;40.43;101342.84;4987332;28;20042;-94
2022/08/10 12:40:13;;;;;;;3.83;2.13;;;25.40;58.50;;;25.45;40.95;101335.59;4985716;28;20041;-93
2022/08/10 12:42:50;;;;;;;4.68;2.35;;;25.40;58.90;;;25.47;41.10;101337.00;4976876;28;20046;-91
2022/08/10 12:45:31;;;;;;;5.07;2.20;;;25.40;58.90;;;25.53;41.19;101337.88;4986178;28;20445;-90
2022/08/10 12:48:07;;;;;;;7.13;2.38;;;25.50;59.00;;;25.55;38.95;101332.88;4982102;28;20049;-90
2022/08/10 12:50:42;;;;;;;6.28;2.28;;;25.50;56.90;;;25.56;38.53;101335.41;4978816;28;20133;-92
2022/08/10 12:53:28;;;;;;;5.68;2.50;;;25.50;57.20;;;25.53;40.23;101329.53;5049514;28;20050;-93
2022/08/10 12:56:00;;;;;;;8.23;2.45;;;25.50;58.10;;;25.50;40.15;101332.84;5052338;28;20489;-96
2022/08/10 12:58:30;;;;;;;6.00;2.50;;;25.50;58.50;;;25.47;39.33;101325.00;5069120;28;20077;-96
2022/08/10 14:40:51;;;;;;;18.83;5.28;;;25.70;55.00;;;25.70;37.66;101229.00;5066893;28;20055;-92
2022/08/10 14:43:23;;;;;;;15.00;4.05;;;25.70;55.80;;;25.87;37.74;101240.00;5047925;28;20033;-90
2022/08/10 14:46:01;;;;;;;14.98;3.97;;;25.70;56.20;;;25.89;37.13;101241.44;5046947;28;20056;-82
2022/08/10 14:53:04;;;;;;;9.32;3.15;;;25.90;55.40;;;25.74;36.42;101225.44;4985734;28;20058;-94
2022/08/10 15:54:50;;;;;;;9.93;2.60;;;25.90;55.00;;;25.54;42.41;101186.25;5037670;28;20056;-88
2022/08/10 15:57:22;;;;;;;4.68;1.95;;;25.90;57.10;;;25.22;43.60;101178.75;5044055;28;20044;-88
2022/08/10 15:59:57;;;;;;;7.72;2.30;;;25.80;55.90;;;25.27;39.86;101189.16;5046956;28;20045;-89
2022/08/10 16:02:30;;;;;;;4.70;2.00;;;25.80;55.40;;;25.33;41.03;101180.53;5035791;28;20056;-88
2022/08/10 16:05:07;;;;;;;5.07;1.95;;;25.70;54.70;;;25.38;38.97;101187.25;5043384;28;20438;-89
2022/08/10 16:07:41;;;;;;;4.68;1.85;;;25.80;54.00;;;25.34;39.07;101182.25;5030906;28;20513;-88
2022/08/10 16:10:15;;;;;;;4.88;1.75;;;25.80;54.00;;;25.17;39.88;101187.91;5030400;28;20518;-88
2022/08/10 16:12:50;;;;;;;6.15;1.70;;;25.70;54.40;;;25.20;39.29;101185.72;5034177;28;20076;-89
2022/08/10 16:15:22;;;;;;;5.53;1.92;;;25.70;55.00;;;25.39;37.63;101183.38;5029609;28;20041;-88
2022/08/10 16:17:54;;;;;;;4.53;1.60;;;25.70;53.50;;;25.38;38.24;101184.47;5034211;28;20591;-89
2022/08/10 16:20:26;;;;;;;6.60;1.67;;;25.70;53.60;;;25.34;37.92;101178.59;5032768;28;20045;-88
2022/08/10 16:22:57;;;;;;;7.03;1.98;;;25.70;52.40;;;25.17;39.76;101176.78;5044036;28;20056;-89
2022/08/10 16:25:27;;;;;;;6.30;1.90;;;25.70;53.80;;;25.21;38.17;101179.00;5025419;28;20131;-89
2022/08/10 16:28:02;;;;;;;3.90;1.70;;;25.70;52.90;;;25.13;39.48;101177.56;5026958;28;20052;-88
2022/08/10 16:30:39;;;;;;;3.10;1.67;;;25.70;53.50;;;25.09;39.64;101170.84;5025702;28;20041;-89
2022/08/10 16:33:11;;;;;;;4.38;2.03;;;25.70;53.30;;;24.96;40.59;101175.78;5029701;28;20149;-88
2022/08/10 16:35:39;;;;;;;3.45;1.63;;;25.60;52.90;;;25.02;40.01;101175.78;5026351;28;20045;-89
2022/08/10 16:38:09;;;;;;;5.13;2.10;;;25.70;52.90;;;24.81;41.62;101166.41;5047102;28;20075;-89
2022/08/10 16:40:40;;;;;;;5.10;1.60;;;25.60;54.40;;;24.66;41.15;101169.91;5043170;28;20040;-89
2022/08/10 16:43:13;;;;;;;4.18;1.70;;;25.50;54.60;;;24.73;40.55;101170.53;5040421;28;20120;-91
2022/08/10 16:45:45;;;;;;;5.13;1.73;;;25.50;54.40;;;24.96;38.61;101173.00;5031912;28;20578;-84
2022/08/10 16:48:20;;;;;;;3.38;1.60;;;25.60;53.20;;;25.15;37.49;101167.84;5034237;28;20055;-87
2022/08/10 16:50:53;;;;;;;5.65;1.88;;;25.60;52.20;;;25.34;36.84;101173.88;5032809;28;20095;-86
2022/08/10 16:53:24;;;;;;;6.18;1.65;;;25.60;51.30;;;25.53;36.44;101165.94;5027812;28;20038;-80
2022/08/10 16:55:56;;;;;;;4.13;1.83;;;25.70;51.10;;;25.67;36.22;101179.38;5016777;28;20046;-83
2022/08/10 16:58:28;;;;;;;4.15;1.52;;;25.70;51.10;;;25.67;36.30;101166.28;5041528;28;20041;-84
2022/08/10 17:01:03;;;;;;;4.70;1.95;;;25.70;51.30;;;25.70;36.18;101168.53;5036474;28;20038;-85
2022/08/10 17:03:39;;;;;;;6.28;1.50;;;25.80;51.40;;;25.68;36.73;101164.31;5045334;28;20049;-80
2022/08/10 17:06:12;;;;;;;3.47;1.55;;;25.80;52.00;;;25.63;36.51;101162.34;5035918;28;20571;-80
2022/08/10 17:08:43;;;;;;;5.43;1.60;;;25.80;51.80;;;25.57;36.40;101157.88;5042853;28;20111;-80
2022/08/10 17:11:13;;;;;;;5.50;1.60;;;25.70;51.50;;;25.55;36.33;101154.47;5040105;28;20137;-81
2022/08/10 17:13:41;;;;;;;4.18;1.88;;;25.80;51.20;;;25.59;36.46;101152.84;5038180;28;20072;-80
2022/08/10 17:16:12;;;;;;;6.15;2.03;;;25.80;51.30;;;25.54;36.84;101159.22;5045044;28;20055;-80
2022/08/10 17:18:43;;;;;;;3.35;1.67;;;25.90;51.30;;;25.52;36.77;101158.66;5040337;28;20033;-80
2022/08/10 17:21:17;;;;;;;5.43;1.70;;;25.90;51.40;;;25.58;37.06;101156.75;5041355;28;20037;-81
2022/08/10 17:23:50;;;;;;;3.38;1.77;;;25.90;51.90;;;25.63;36.46;101151.22;5017259;28;20131;-78
2022/08/10 17:26:22;;;;;;;8.90;1.85;;;25.90;51.50;;;25.57;37.10;101152.28;5003692;28;20068;-83
2022/08/10 17:28:51;;;;;;;6.20;1.70;;;25.80;52.30;;;25.56;36.49;101145.03;5041266;28;20041;-83
2022/08/10 17:33:55;;;;;;;5.20;1.83;;;25.70;52.80;;;25.41;36.67;101142.16;5023531;28;20098;-78
2022/08/10 17:36:28;;;;;;;6.30;1.90;;;25.80;51.80;;;25.46;36.75;101144.97;5031369;28;20049;-79
2022/08/10 17:38:56;;;;;;;11.85;3.45;;;25.70;52.00;;;25.40;37.19;101144.09;5021681;28;20407;-79
2022/08/10 17:41:31;;;;;;;4.55;2.28;;;25.70;52.10;;;25.35;36.79;101144.88;5023846;28;20414;-79
2022/08/10 17:44:02;;;;;;;5.53;2.67;;;25.70;51.60;;;25.32;37.16;101139.88;5024847;28;20494;-79
2022/08/10 17:46:34;;;;;;;12.07;4.68;;;25.70;52.20;;;25.31;37.52;101138.19;5032245;28;20045;-78
2022/08/10 17:49:07;;;;;;;5.22;2.17;;;25.70;52.50;;;25.29;36.64;101136.78;5027966;28;20042;-79
2022/08/10 17:51:36;;;;;;;9.23;2.60;;;25.60;52.10;;;25.29;37.31;101136.78;5018506;28;20103;-78
2022/08/10 17:54:09;;;;;;;4.55;2.25;;;25.70;52.30;;;25.27;37.44;101141.78;5023086;28;20045;-78
2022/08/10 17:56:38;;;;;;;6.88;2.60;;;25.60;52.90;;;25.20;37.66;101153.09;5023908;28;20045;-78
2022/08/10 17:59:14;;;;;;;4.53;2.00;;;25.60;52.40;;;25.23;37.47;101141.47;5014768;28;20042;-77
2022/08/10 18:01:43;;;;;;;5.97;2.13;;;25.60;52.50;;;25.27;37.45;101142.63;5014401;28;20510;-77
2022/08/10 18:04:18;;;;;;;9.35;2.55;;;25.60;52.60;;;25.18;37.85;101144.19;5018694;28;20488;-77